Time;durP1;ratioP1;P1;durP2;ratioP2;P2;SDS_P1;SDS_P2;PMS_P1;PMS_P2;Temp;Humidity;BMP_temperature;BMP_pressure;BME280_temperature;BME280_humidity;BME280_pressure;Samples;Min_cycle;Max_cycle;Signal;HPM_P1;HPM_P2
2021/09/30 00:00:35;;;;;;;;;;;;;;;11.30;100.00;100974.91;5015241;28;19929;-69
2021/09/30 00:03:00;;;;;;;;;;;;;;;11.31;100.00;100972.06;5031608;28;20011;-69
2021/09/30 00:05:26;;;;;;;;;;;;;;;11.30;100.00;100956.94;5055139;28;20425;-67
2021/09/30 00:07:51;;;;;;;;;;;;;;;11.34;100.00;100952.03;5016220;28;20360;-67
2021/09/30 00:10:22;;;;;;;;;;;;;;;11.36;100.00;100948.16;5013181;28;19917;-67
2021/09/30 00:12:57;;;;;;;;;;;;;;;11.39;100.00;100937.00;5014871;28;19925;-69
2021/09/30 00:16:04;;;;;;;;;;;;;;;11.39;100.00;100931.63;5035560;28;19942;-71
2021/09/30 00:35:00;;;;;;;;;;;;;;;11.44;100.00;100870.00;5046484;28;20377;-66
2021/09/30 00:40:17;;;;;;;;;;;;;;;11.49;100.00;100866.78;5031192;28;19939;-66
2021/09/30 00:45:27;;;;;;;;;;;;;;;11.52;100.00;100865.59;5044002;28;20416;-66
2021/09/30 00:45:41;;;;;;;;;;;;;;;11.54;100.00;100863.56;5027697;28;19924;-68
2021/09/30 00:48:18;;;;;;;;;;;;;;;11.54;100.00;100850.09;5051180;28;19921;-67
2021/09/30 01:22:10;;;;;;;;;;;;;;;11.77;100.00;100786.25;5033552;28;19979;-65
2021/09/30 01:40:28;;;;;;;;;;;;;;;12.00;100.00;100739.59;5032140;28;20401;-68
2021/09/30 02:59:26;;;;;;;;;;;;;;;12.71;100.00;100629.25;5042616;28;20027;-67
2021/09/30 03:01:52;;;;;;;;;;;;;;;12.73;100.00;100625.34;5049276;28;20031;-66
2021/09/30 03:04:18;;;;;;;;;;;;;;;12.76;100.00;100624.13;5031101;28;19924;-67
2021/09/30 03:06:44;;;;;;;;;;;;;;;12.78;100.00;100611.28;5049369;28;20280;-70
2021/09/30 03:09:11;;;;;;;;;;;;;;;12.80;100.00;100616.47;5025974;28;20007;-70
2021/09/30 03:11:38;;;;;;;;;;;;;;;12.82;100.00;100609.84;5023701;28;20028;-68
2021/09/30 03:14:05;;;;;;;;;;;;;;;12.85;100.00;100606.75;5025322;28;19917;-69
2021/09/30 03:16:38;;;;;;;;;;;;;;;12.88;100.00;100608.22;5014184;28;19949;-67
2021/09/30 03:19:16;;;;;;;;;;;;;;;12.91;100.00;100597.91;5008724;28;19931;-68
2021/09/30 03:22:13;;;;;;;;;;;;;;;12.98;100.00;100596.06;5040321;28;20362;-69
2021/09/30 03:24:43;;;;;;;;;;;;;;;13.03;100.00;100592.78;5037858;28;19917;-66
2021/09/30 03:27:10;;;;;;;;;;;;;;;13.07;100.00;100591.38;5019817;28;19916;-66
2021/09/30 03:29:35;;;;;;;;;;;;;;;13.13;100.00;100585.19;5019901;28;19913;-67
2021/09/30 03:32:01;;;;;;;;;;;;;;;13.19;100.00;100573.59;5021650;28;20009;-66
2021/09/30 03:34:26;;;;;;;;;;;;;;;13.30;100.00;100569.53;5015177;28;19930;-70
2021/09/30 03:36:52;;;;;;;;;;;;;;;13.36;100.00;100563.38;5045292;28;19995;-68
2021/09/30 03:39:23;;;;;;;;;;;;;;;13.40;100.00;100550.28;5033560;28;19978;-68
2021/09/30 03:41:49;;;;;;;;;;;;;;;13.40;100.00;100559.22;5032590;28;19947;-69
2021/09/30 03:44:15;;;;;;;;;;;;;;;13.44;100.00;100553.41;5030098;28;21493;-71
2021/09/30 03:46:43;;;;;;;;;;;;;;;13.49;100.00;100545.53;5052409;28;19916;-67
2021/09/30 03:49:12;;;;;;;;;;;;;;;13.56;100.00;100538.31;5017355;28;19980;-69
2021/09/30 03:57:08;;;;;;;;;;;;;;;13.72;100.00;100537.13;5038734;28;19963;-68
2021/09/30 03:59:33;;;;;;;;;;;;;;;13.77;100.00;100538.19;5058726;28;19916;-70
2021/09/30 04:02:01;;;;;;;;;;;;;;;13.77;100.00;100527.38;5029570;28;19917;-70
2021/09/30 04:04:29;;;;;;;;;;;;;;;13.77;100.00;100543.59;5017678;28;19965;-69
2021/09/30 04:06:55;;;;;;;;;;;;;;;13.76;100.00;100536.53;5015418;28;19931;-70
2021/09/30 04:09:26;;;;;;;;;;;;;;;13.73;100.00;100533.38;5025441;28;20431;-70
2021/09/30 04:11:52;;;;;;;;;;;;;;;13.69;100.00;100532.16;5014482;28;19925;-71
2021/09/30 04:14:18;;;;;;;;;;;;;;;13.67;100.00;100529.63;5053263;28;19917;-72
2021/09/30 04:16:47;;;;;;;;;;;;;;;13.64;100.00;100535.44;5018818;28;19956;-70
2021/09/30 04:19:14;;;;;;;;;;;;;;;13.59;100.00;100519.81;5037232;28;19921;-71
2021/09/30 04:21:40;;;;;;;;;;;;;;;13.54;100.00;100526.88;5025358;28;19920;-70
2021/09/30 04:24:05;;;;;;;;;;;;;;;13.50;100.00;100529.16;5011304;28;19929;-70
2021/09/30 04:26:31;;;;;;;;;;;;;;;13.50;100.00;100533.72;5026604;28;19917;-70
2021/09/30 04:28:56;;;;;;;;;;;;;;;13.52;100.00;100529.78;5015233;28;19924;-72
2021/09/30 04:31:23;;;;;;;;;;;;;;;13.54;100.00;100535.81;5059062;28;19962;-70
2021/09/30 04:33:50;;;;;;;;;;;;;;;13.56;100.00;100522.94;5050490;28;19924;-72
2021/09/30 04:36:15;;;;;;;;;;;;;;;13.59;100.00;100514.44;5015879;28;19921;-70
2021/09/30 04:38:41;;;;;;;;;;;;;;;13.60;100.00;100526.06;5044698;28;19970;-70
2021/09/30 04:41:06;;;;;;;;;;;;;;;13.59;100.00;100519.81;5015351;28;20277;-71
2021/09/30 04:43:32;;;;;;;;;;;;;;;13.59;100.00;100517.13;5035933;28;20247;-71
2021/09/30 04:45:57;;;;;;;;;;;;;;;13.56;100.00;100514.84;5032760;28;19962;-69
2021/09/30 04:48:23;;;;;;;;;;;;;;;13.56;100.00;100509.44;5014015;28;19928;-69
2021/09/30 04:50:48;;;;;;;;;;;;;;;13.55;100.00;100502.38;5021005;28;19959;-70
2021/09/30 04:53:14;;;;;;;;;;;;;;;13.53;100.00;100520.63;5054709;28;20373;-70
2021/09/30 04:55:39;;;;;;;;;;;;;;;13.50;100.00;100512.94;5030051;28;19917;-71
2021/09/30 04:58:05;;;;;;;;;;;;;;;13.48;100.00;100508.78;5045580;28;20366;-73
2021/09/30 05:00:30;;;;;;;;;;;;;;;13.48;100.00;100511.47;5013030;28;20552;-70
2021/09/30 05:02:59;;;;;;;;;;;;;;;13.47;100.00;100501.69;5051575;28;19917;-70
2021/09/30 05:05:24;;;;;;;;;;;;;;;13.44;100.00;100505.63;5032767;28;19920;-69
2021/09/30 05:07:50;;;;;;;;;;;;;;;13.41;100.00;100498.75;5045777;28;19935;-70
2021/09/30 05:10:19;;;;;;;;;;;;;;;13.40;100.00;100496.28;5013060;28;19990;-73
2021/09/30 05:12:45;;;;;;;;;;;;;;;13.41;100.00;100485.25;5031273;28;19932;-68
2021/09/30 05:15:11;;;;;;;;;;;;;;;13.45;100.00;100484.88;5053520;28;19912;-71
2021/09/30 05:17:36;;;;;;;;;;;;;;;13.48;100.00;100487.16;5016328;28;19949;-71
2021/09/30 05:20:02;;;;;;;;;;;;;;;13.48;100.00;100477.19;5021874;28;20397;-71
2021/09/30 05:22:28;;;;;;;;;;;;;;;13.48;100.00;100477.19;5036426;28;19913;-70
2021/09/30 05:24:53;;;;;;;;;;;;;;;13.50;100.00;100483.22;5010942;28;19928;-70
2021/09/30 05:27:19;;;;;;;;;;;;;;;13.53;100.00;100477.41;5046745;28;19923;-68
2021/09/30 05:29:44;;;;;;;;;;;;;;;13.55;100.00;100475.34;5021623;28;19917;-69
2021/09/30 05:32:10;;;;;;;;;;;;;;;13.55;100.00;100488.88;5013540;28;19948;-70
2021/09/30 05:34:35;;;;;;;;;;;;;;;13.55;100.00;100502.38;5018086;28;19916;-69
2021/09/30 05:37:01;;;;;;;;;;;;;;;13.55;100.00;100504.25;5016254;28;19978;-69
2021/09/30 05:39:26;;;;;;;;;;;;;;;13.52;100.00;100516.28;5011706;28;20439;-71
2021/09/30 05:41:54;;;;;;;;;;;;;;;13.50;100.00;100502.13;5054036;28;20311;-72
2021/09/30 05:44:23;;;;;;;;;;;;;;;13.49;100.00;100494.22;5019590;28;19936;-71
2021/09/30 05:46:53;;;;;;;;;;;;;;;13.46;100.00;100505.44;5016721;28;19917;-70
2021/09/30 05:49:20;;;;;;;;;;;;;;;13.43;100.00;100506.66;5045978;28;20013;-70
2021/09/30 05:51:45;;;;;;;;;;;;;;;13.39;100.00;100497.31;5012990;28;20022;-69
2021/09/30 05:54:11;;;;;;;;;;;;;;;13.34;100.00;100494.38;5056899;28;20337;-71
2021/09/30 05:56:36;;;;;;;;;;;;;;;13.29;100.00;100491.44;5016030;28;20357;-72
2021/09/30 05:59:02;;;;;;;;;;;;;;;13.26;100.00;100494.50;5034807;28;19931;-69
2021/09/30 06:01:52;;;;;;;;;;;;;;;13.22;100.00;100485.13;5042242;28;19925;-70
2021/09/30 06:12:39;;;;;;;;;;;;;;;13.05;100.00;100498.97;5025358;28;19921;-69
2021/09/30 06:15:12;;;;;;;;;;;;;;;13.04;100.00;100499.16;5028294;28;19916;-70
2021/09/30 06:17:39;;;;;;;;;;;;;;;13.03;100.00;100489.41;5034390;28;19916;-71
2021/09/30 06:20:05;;;;;;;;;;;;;;;13.01;100.00;100491.47;5014825;28;19918;-69
2021/09/30 06:22:31;;;;;;;;;;;;;;;13.01;100.00;100500.38;5012572;28;19928;-69
2021/09/30 06:24:56;;;;;;;;;;;;;;;13.01;100.00;100494.16;5014476;28;19917;-71
2021/09/30 06:27:22;;;;;;;;;;;;;;;12.99;100.00;100483.53;5017305;28;19917;-71
2021/09/30 06:29:48;;;;;;;;;;;;;;;12.97;100.00;100493.72;5021685;28;19986;-69
2021/09/30 06:32:13;;;;;;;;;;;;;;;12.95;100.00;100501.19;5015604;28;20290;-70
2021/09/30 06:34:41;;;;;;;;;;;;;;;12.90;100.00;100487.44;5022757;28;20269;-70
2021/09/30 06:37:07;;;;;;;;;;;;;;;12.82;100.00;100498.41;5023589;28;19917;-70
2021/09/30 06:39:37;;;;;;;;;;;;;;;12.75;100.00;100493.78;5016546;28;19923;-72
2021/09/30 06:42:02;;;;;;;;;;;;;;;12.68;100.00;100497.47;5013773;28;19917;-70
2021/09/30 06:44:28;;;;;;;;;;;;;;;12.66;100.00;100504.91;5025065;28;20010;-73
2021/09/30 06:46:53;;;;;;;;;;;;;;;12.61;100.00;100500.09;5021180;28;19929;-70
2021/09/30 06:49:19;;;;;;;;;;;;;;;12.61;100.00;100493.88;5032582;28;20377;-70
2021/09/30 06:51:44;;;;;;;;;;;;;;;12.61;100.00;100496.56;5013273;28;19970;-70
2021/09/30 06:54:10;;;;;;;;;;;;;;;12.63;100.00;100505.31;5052490;28;20004;-69
2021/09/30 06:56:35;;;;;;;;;;;;;;;12.61;100.00;100501.97;5022327;28;20484;-71
2021/09/30 06:59:05;;;;;;;;;;;;;;;12.63;100.00;100500.75;5027643;28;20311;-70
2021/09/30 07:01:35;;;;;;;;;;;;;;;12.64;100.00;100499.72;5018772;28;20389;-69
2021/09/30 07:04:01;;;;;;;;;;;;;;;12.67;100.00;100506.56;5030432;28;20378;-69
2021/09/30 07:06:26;;;;;;;;;;;;;;;12.69;100.00;100491.03;5012342;28;19921;-69
2021/09/30 07:08:52;;;;;;;;;;;;;;;12.70;100.00;100488.16;5012658;28;20278;-70
2021/09/30 07:11:17;;;;;;;;;;;;;;;12.71;100.00;100495.22;5015850;28;19913;-70
2021/09/30 07:13:43;;;;;;;;;;;;;;;12.73;100.00;100486.94;5021783;28;20280;-69
2021/09/30 07:16:09;;;;;;;;;;;;;;;12.74;100.00;100484.00;5025433;28;20010;-68
2021/09/30 07:18:36;;;;;;;;;;;;;;;12.78;100.00;100489.88;5015638;28;19971;-72
2021/09/30 07:21:01;;;;;;;;;;;;;;;12.80;100.00;100485.09;5013873;28;19913;-70
2021/09/30 07:23:30;;;;;;;;;;;;;;;12.82;100.00;100487.59;5012824;28;19924;-69
2021/09/30 07:25:56;;;;;;;;;;;;;;;12.82;100.00;100480.34;5029918;28;19917;-71
2021/09/30 07:28:24;;;;;;;;;;;;;;;12.85;100.00;100481.81;5028860;28;19916;-69
2021/09/30 07:30:58;;;;;;;;;;;;;;;12.89;100.00;100481.22;5032672;28;19923;-69
2021/09/30 07:33:24;;;;;;;;;;;;;;;12.92;100.00;100493.50;5021819;28;19916;-70
2021/09/30 07:35:50;;;;;;;;;;;;;;;12.92;100.00;100494.31;5054959;28;19917;-69
2021/09/30 07:38:16;;;;;;;;;;;;;;;12.92;100.00;100482.69;5032700;28;20018;-69
2021/09/30 07:40:42;;;;;;;;;;;;;;;12.93;100.00;100479.78;5008821;28;19921;-69
2021/09/30 07:43:07;;;;;;;;;;;;;;;12.95;100.00;100490.38;5012484;28;19921;-72
2021/09/30 07:45:33;;;;;;;;;;;;;;;12.97;100.00;100489.16;5013477;28;19928;-69
2021/09/30 07:47:58;;;;;;;;;;;;;;;12.98;100.00;100496.22;5017617;28;19921;-69
2021/09/30 07:50:25;;;;;;;;;;;;;;;13.05;100.00;100501.66;5019876;28;19939;-70
2021/09/30 07:52:50;;;;;;;;;;;;;;;13.11;100.00;100503.56;5054761;28;20431;-69
2021/09/30 07:55:16;;;;;;;;;;;;;;;13.14;100.00;100511.25;5016621;28;19929;-69
2021/09/30 07:57:41;;;;;;;;;;;;;;;13.13;100.00;100515.00;5030673;28;19917;-70
2021/09/30 08:00:07;;;;;;;;;;;;;;;13.11;100.00;100508.97;5058628;28;19913;-68
2021/09/30 08:02:32;;;;;;;;;;;;;;;13.12;100.00;100513.31;5043168;28;19916;-71
2021/09/30 08:04:58;;;;;;;;;;;;;;;13.12;100.00;100528.69;5033303;28;20342;-71
2021/09/30 08:07:23;;;;;;;;;;;;;;;13.10;100.00;100530.78;5019898;28;19967;-69
2021/09/30 08:09:49;;;;;;;;;;;;;;;13.07;100.00;100532.00;5017817;28;20000;-70
2021/09/30 08:12:14;;;;;;;;;;;;;;;13.01;100.00;100538.16;5028202;28;20014;-70
2021/09/30 08:14:40;;;;;;;;;;;;;;;12.93;100.00;100539.16;5009691;28;19993;-71
2021/09/30 08:17:06;;;;;;;;;;;;;;;12.84;100.00;100544.91;5017196;28;19929;-69
2021/09/30 08:19:32;;;;;;;;;;;;;;;12.77;100.00;100548.38;5023008;28;19923;-72
2021/09/30 08:22:00;;;;;;;;;;;;;;;12.74;100.00;100548.75;5010777;28;20345;-69
2021/09/30 08:24:26;;;;;;;;;;;;;;;12.74;100.00;100543.38;5041290;28;19981;-71
2021/09/30 08:26:52;;;;;;;;;;;;;;;12.76;100.00;100546.72;5043967;28;20269;-69
2021/09/30 08:29:18;;;;;;;;;;;;;;;12.84;100.00;100547.59;5032424;28;19916;-70
2021/09/30 08:31:44;;;;;;;;;;;;;;;12.89;100.00;100537.88;5019605;28;20498;-71
2021/09/30 08:34:09;;;;;;;;;;;;;;;13.00;100.00;100536.50;5019405;28;19960;-71
2021/09/30 08:36:35;;;;;;;;;;;;;;;13.16;100.00;100535.38;5035386;28;19975;-70
2021/09/30 08:39:01;;;;;;;;;;;;;;;13.27;100.00;100532.13;5014263;28;20132;-70
2021/09/30 08:41:27;;;;;;;;;;;;;;;13.40;100.00;100526.81;5054795;28;19917;-70
2021/09/30 08:43:53;;;;;;;;;;;;;;;13.65;100.00;100523.59;5034443;28;19917;-69
2021/09/30 08:46:18;;;;;;;;;;;;;;;13.76;100.00;100519.47;5018671;28;19913;-70
2021/09/30 08:48:44;;;;;;;;;;;;;;;13.68;100.00;100511.53;5013738;28;19921;-71
2021/09/30 08:51:16;;;;;;;;;;;;;;;13.55;100.00;100520.44;5050190;28;19986;-69
2021/09/30 08:53:41;;;;;;;;;;;;;;;13.38;100.00;100528.03;5014388;28;20113;-70
2021/09/30 08:56:08;;;;;;;;;;;;;;;13.34;100.00;100530.31;5018634;28;19912;-69
2021/09/30 08:58:34;;;;;;;;;;;;;;;13.34;100.00;100521.38;5016069;28;20419;-69
2021/09/30 09:00:59;;;;;;;;;;;;;;;13.38;100.00;100531.56;5015203;28;19913;-70
2021/09/30 09:03:38;;;;;;;;;;;;;;;13.39;100.00;100543.22;5016567;28;19971;-69
2021/09/30 09:06:05;;;;;;;;;;;;;;;13.25;100.00;100554.94;5012214;28;19921;-71
2021/09/30 09:08:30;;;;;;;;;;;;;;;13.11;100.00;100543.22;5016994;28;20384;-71
2021/09/30 09:10:56;;;;;;;;;;;;;;;13.03;100.00;100538.81;5016424;28;19982;-68
2021/09/30 09:13:22;;;;;;;;;;;;;;;12.96;100.00;100544.16;5011069;28;19921;-70
2021/09/30 09:15:50;;;;;;;;;;;;;;;12.91;100.00;100540.38;5012644;28;19920;-70
2021/09/30 09:18:19;;;;;;;;;;;;;;;12.88;100.00;100536.19;5047539;28;20388;-70
2021/09/30 09:20:46;;;;;;;;;;;;;;;12.88;100.00;100535.38;5017225;28;19913;-70
2021/09/30 09:23:11;;;;;;;;;;;;;;;12.83;100.00;100530.56;5015305;28;20433;-70
2021/09/30 09:25:37;;;;;;;;;;;;;;;12.82;100.00;100534.31;5012640;28;19913;-68
2021/09/30 09:28:03;;;;;;;;;;;;;;;12.85;100.00;100533.06;5015709;28;19979;-70
2021/09/30 09:30:42;;;;;;;;;;;;;;;12.88;100.00;100529.97;5017805;28;19925;-69
2021/09/30 09:33:08;;;;;;;;;;;;;;;12.90;100.00;100530.63;5037525;28;19981;-69
2021/09/30 09:35:49;;;;;;;;;;;;;;;12.95;100.00;100522.78;5034259;28;20357;-69
2021/09/30 09:38:16;;;;;;;;;;;;;;;13.12;100.00;100517.88;5044615;28;19923;-70
2021/09/30 09:40:41;;;;;;;;;;;;;;;13.33;100.00;100520.53;5021334;28;20412;-68
2021/09/30 09:43:27;;;;;;;;;;;;;;;13.52;100.00;100524.38;5023953;28;19917;-68
2021/09/30 09:45:53;;;;;;;;;;;;;;;13.61;100.00;100522.34;5032417;28;19917;-69
2021/09/30 09:48:18;;;;;;;;;;;;;;;13.60;100.00;100518.81;5016834;28;19951;-70
2021/09/30 09:50:44;;;;;;;;;;;;;;;13.51;100.00;100522.69;5018432;28;19932;-70
2021/09/30 09:53:09;;;;;;;;;;;;;;;13.36;100.00;100520.16;5017083;28;19917;-69
2021/09/30 09:55:38;;;;;;;;;;;;;;;13.23;100.00;100527.28;5022521;28;19971;-70
2021/09/30 09:58:12;;;;;;;;;;;;;;;13.12;100.00;100526.00;5011830;28;20254;-69
2021/09/30 10:00:39;;;;;;;;;;;;;;;13.08;100.00;100522.03;5008098;28;19917;-69
2021/09/30 10:03:27;;;;;;;;;;;;;;;13.08;100.00;100528.25;5052463;28;19916;-69
2021/09/30 10:06:00;;;;;;;;;;;;;;;13.00;100.00;100523.00;5038249;28;19920;-69
2021/09/30 10:08:25;;;;;;;;;;;;;;;12.96;100.00;100525.25;5021208;28;19917;-69
2021/09/30 10:10:54;;;;;;;;;;;;;;;12.96;100.00;100527.13;5054846;28;19912;-69
2021/09/30 10:13:21;;;;;;;;;;;;;;;13.03;100.00;100513.69;5015898;28;20293;-70
2021/09/30 10:15:47;;;;;;;;;;;;;;;13.20;100.00;100515.88;5045781;28;19927;-69
2021/09/30 10:18:13;;;;;;;;;;;;;;;13.39;100.00;100497.31;5018185;28;19983;-70
2021/09/30 10:20:39;;;;;;;;;;;;;;;13.47;100.00;100496.28;5034085;28;19924;-71
2021/09/30 10:23:07;;;;;;;;;;;;;;;13.45;100.00;100499.22;5021102;28;20290;-69
2021/09/30 10:25:33;;;;;;;;;;;;;;;13.45;100.00;100501.91;5019624;28;19962;-69
2021/09/30 10:27:59;;;;;;;;;;;;;;;13.41;100.00;100490.66;5018616;28;20412;-69
2021/09/30 10:30:32;;;;;;;;;;;;;;;13.61;100.00;100493.44;5026653;28;19948;-72
2021/09/30 10:32:57;;;;;;;;;;;;;;;13.70;100.00;100499.50;5018887;28;19912;-69
2021/09/30 10:35:30;;;;;;;;;;;;;;;13.75;100.00;100502.44;5019661;28;20377;-69
2021/09/30 10:38:14;;;;;;;;;;;;;;;13.81;100.00;100498.06;5029549;28;19924;-71
2021/09/30 10:40:59;;;;;;;;;;;;;;;13.77;100.00;100497.66;5019605;28;20269;-71
2021/09/30 10:43:25;;;;;;;;;;;;;;;13.77;100.00;100492.25;5063315;28;20340;-68
2021/09/30 10:45:50;;;;;;;;;;;;;;;13.76;100.00;100495.16;5023046;28;19941;-69
2021/09/30 10:48:31;;;;;;;;;;;;;;;13.96;100.00;100493.34;5018635;28;19967;-71
2021/09/30 10:50:57;;;;;;;;;;;;;;;14.19;100.00;100492.97;5037572;28;19912;-70
2021/09/30 10:53:42;;;;;;;;;;;;;;;14.22;100.00;100491.72;5024769;28;19929;-70
2021/09/30 10:56:40;;;;;;;;;;;;;;;14.15;100.00;100482.78;5031656;28;19959;-70
2021/09/30 10:59:09;;;;;;;;;;;;;;;14.03;100.00;100483.38;5017514;28;20300;-68
2021/09/30 11:01:41;;;;;;;;;;;;;;;13.95;100.00;100480.88;5048061;28;20309;-70
2021/09/30 11:04:06;;;;;;;;;;;;;;;13.97;100.00;100481.50;5056332;28;20332;-69
2021/09/30 11:06:32;;;;;;;;;;;;;;;14.03;100.00;100491.50;5028260;28;19917;-69
2021/09/30 11:09:10;;;;;;;;;;;;;;;14.07;100.00;100483.78;5023371;28;19929;-70
2021/09/30 11:11:36;;;;;;;;;;;;;;;14.13;100.00;100482.13;5045090;28;19960;-70
2021/09/30 11:14:05;;;;;;;;;;;;;;;14.18;100.00;100474.25;5017782;28;19955;-69
2021/09/30 11:16:33;;;;;;;;;;;;;;;14.16;100.00;100476.34;5031928;28;19971;-70
2021/09/30 11:19:00;;;;;;;;;;;;;;;14.02;100.00;100470.88;5047087;28;19956;-69
2021/09/30 11:21:32;;;;;;;;;;;;;;;13.92;100.00;100465.06;5022596;28;20419;-68
2021/09/30 11:24:04;;;;;;;;;;;;;;;13.85;100.00;100469.63;5035062;28;20061;-69
2021/09/30 11:26:48;;;;;;;;;;;;;;;13.73;100.00;100463.13;5022944;28;19940;-70
2021/09/30 11:29:24;;;;;;;;;;;;;;;13.85;100.00;100478.56;5029249;28;20593;-68
2021/09/30 11:31:56;;;;;;;;;;;;;;;14.02;100.00;100478.16;5035069;28;19917;-68
2021/09/30 11:34:27;;;;;;;;;;;;;;;14.14;100.00;100467.59;5040535;28;19921;-72
2021/09/30 11:36:54;;;;;;;;;;;;;;;14.24;98.89;100452.63;5027391;28;19921;-68
2021/09/30 11:39:19;;;;;;;;;;;;;;;14.30;98.22;100465.31;5019609;28;19967;-72
2021/09/30 11:41:45;;;;;;;;;;;;;;;14.22;97.64;100462.00;5012516;28;19964;-69
2021/09/30 11:44:15;;;;;;;;;;;;;;;14.13;97.86;100461.38;5011776;28;19924;-66
2021/09/30 11:46:42;;;;;;;;;;;;;;;14.14;97.10;100456.78;5016373;28;20315;-69
2021/09/30 11:49:08;;;;;;;;;;;;;;;14.11;97.57;100462.59;5053515;28;19966;-70
2021/09/30 11:51:34;;;;;;;;;;;;;;;14.06;97.29;100461.34;5013519;28;19923;-71
2021/09/30 11:54:00;;;;;;;;;;;;;;;14.04;97.38;100466.13;5037043;28;19913;-69
2021/09/30 11:56:25;;;;;;;;;;;;;;;13.97;97.05;100462.59;5017550;28;19916;-69
2021/09/30 11:59:05;;;;;;;;;;;;;;;13.90;96.90;100461.72;5027454;28;19917;-71
2021/09/30 12:01:46;;;;;;;;;;;;;;;14.00;97.03;100462.16;5034545;28;19917;-70
2021/09/30 12:04:13;;;;;;;;;;;;;;;14.07;96.34;100452.19;5014813;28;19920;-70
2021/09/30 12:06:43;;;;;;;;;;;;;;;14.26;95.08;100438.88;5010097;28;19924;-72
2021/09/30 12:09:10;;;;;;;;;;;;;;;14.46;94.61;100447.84;5014731;28;19924;-71
2021/09/30 12:11:39;;;;;;;;;;;;;;;14.70;93.88;100437.44;5022767;28;19917;-70
2021/09/30 12:14:06;;;;;;;;;;;;;;;14.81;92.94;100446.78;5018517;28;20423;-71
2021/09/30 12:16:32;;;;;;;;;;;;;;;14.73;92.90;100445.13;5041405;28;19950;-72
2021/09/30 12:19:01;;;;;;;;;;;;;;;14.67;92.87;100440.56;5013725;28;19921;-70
2021/09/30 12:21:39;;;;;;;;;;;;;;;14.69;92.60;100443.91;5022191;28;20004;-70
2021/09/30 12:24:05;;;;;;;;;;;;;;;14.64;92.13;100436.41;5017521;28;19917;-71
2021/09/30 12:26:30;;;;;;;;;;;;;;;14.68;92.02;100417.88;5012697;28;19977;-71
2021/09/30 12:28:57;;;;;;;;;;;;;;;14.92;91.07;100417.19;5015708;28;20280;-69
2021/09/30 12:31:23;;;;;;;;;;;;;;;15.14;89.92;100414.22;5019101;28;19918;-71
2021/09/30 12:33:50;;;;;;;;;;;;;;;15.29;89.30;100406.63;5040920;28;19917;-69
2021/09/30 12:36:17;;;;;;;;;;;;;;;15.42;88.46;100413.03;5029881;28;19956;-70
2021/09/30 12:38:59;;;;;;;;;;;;;;;15.42;88.01;100403.03;5018231;28;19921;-69
2021/09/30 12:41:24;;;;;;;;;;;;;;;15.33;87.54;100409.75;5013468;28;19921;-68
2021/09/30 12:43:50;;;;;;;;;;;;;;;15.27;87.81;100408.75;5026087;28;19929;-70
2021/09/30 12:46:18;;;;;;;;;;;;;;;15.06;88.42;100414.44;5007955;28;20056;-69
2021/09/30 12:48:43;;;;;;;;;;;;;;;14.70;89.85;100403.09;5017669;28;19956;-71
2021/09/30 12:51:09;;;;;;;;;;;;;;;14.58;91.22;100406.63;5020543;28;20399;-71
2021/09/30 12:53:42;;;;;;;;;;;;;;;14.64;91.81;100397.69;5020108;28;20015;-70
2021/09/30 12:56:09;;;;;;;;;;;;;;;14.68;91.74;100390.81;5025438;28;19917;-69
2021/09/30 12:58:39;;;;;;;;;;;;;;;14.79;91.18;100394.72;5024646;28;19924;-70
2021/09/30 13:01:25;;;;;;;;;;;;;;;14.75;91.31;100393.50;5011703;28;19925;-68
2021/09/30 13:04:09;;;;;;;;;;;;;;;14.79;91.17;100402.84;5030316;28;20149;-71
2021/09/30 13:06:34;;;;;;;;;;;;;;;14.76;91.17;100403.28;5043370;28;20282;-70
2021/09/30 13:09:00;;;;;;;;;;;;;;;14.64;91.21;100403.94;5011225;28;19943;-68
2021/09/30 13:11:30;;;;;;;;;;;;;;;14.59;91.32;100395.63;5019556;28;19920;-68
2021/09/30 13:14:12;;;;;;;;;;;;;;;14.63;91.09;100386.06;5033944;28;20396;-69
2021/09/30 13:16:38;;;;;;;;;;;;;;;14.68;90.79;100390.81;5025127;28;20483;-69
2021/09/30 13:19:03;;;;;;;;;;;;;;;14.73;90.27;100399.94;5017077;28;19937;-68
2021/09/30 13:21:29;;;;;;;;;;;;;;;14.72;90.22;100387.47;5046336;28;20321;-68
2021/09/30 13:23:54;;;;;;;;;;;;;;;14.78;89.82;100393.91;5015841;28;19943;-68
2021/09/30 13:26:20;;;;;;;;;;;;;;;14.83;89.75;100383.28;5013489;28;19939;-67
2021/09/30 13:28:45;;;;;;;;;;;;;;;14.80;89.69;100389.13;5017204;28;20404;-71
2021/09/30 13:31:11;;;;;;;;;;;;;;;14.75;89.94;100390.81;5013371;28;19921;-68
2021/09/30 13:33:36;;;;;;;;;;;;;;;14.71;89.71;100382.25;5016291;28;19916;-69
2021/09/30 13:36:21;;;;;;;;;;;;;;;14.65;89.77;100392.06;5050136;28;20389;-68
2021/09/30 13:38:46;;;;;;;;;;;;;;;14.65;89.65;100394.75;5027377;28;19917;-69
2021/09/30 13:41:12;;;;;;;;;;;;;;;14.64;90.01;100395.00;5007901;28;19928;-70
2021/09/30 13:43:40;;;;;;;;;;;;;;;14.57;90.89;100377.94;5013031;28;19958;-70
2021/09/30 13:46:05;;;;;;;;;;;;;;;14.55;91.38;100374.59;5011896;28;20003;-68
2021/09/30 13:48:31;;;;;;;;;;;;;;;14.66;91.09;100380.22;5011349;28;19928;-67
2021/09/30 13:50:56;;;;;;;;;;;;;;;14.75;90.78;100378.09;5014467;28;19924;-69
2021/09/30 13:53:22;;;;;;;;;;;;;;;14.78;90.75;100366.84;5012509;28;19920;-70
2021/09/30 13:55:48;;;;;;;;;;;;;;;14.80;90.99;100375.59;5017197;28;19916;-67
2021/09/30 13:58:13;;;;;;;;;;;;;;;14.87;90.80;100365.56;5042575;28;20186;-68
2021/09/30 14:00:39;;;;;;;;;;;;;;;14.94;90.42;100363.66;5012281;28;19917;-70
2021/09/30 14:03:06;;;;;;;;;;;;;;;14.93;90.23;100359.31;5011227;28;20273;-68
2021/09/30 14:05:31;;;;;;;;;;;;;;;14.83;90.38;100358.91;5028000;28;19917;-69
2021/09/30 14:07:57;;;;;;;;;;;;;;;14.65;90.77;100351.47;5010940;28;19916;-69
2021/09/30 14:10:24;;;;;;;;;;;;;;;14.44;91.17;100349.81;5019757;28;19924;-68
2021/09/30 14:12:50;;;;;;;;;;;;;;;14.33;91.86;100336.94;5017099;28;20301;-69
2021/09/30 14:15:15;;;;;;;;;;;;;;;14.34;91.48;100337.78;5021142;28;19913;-70
2021/09/30 14:17:41;;;;;;;;;;;;;;;14.33;91.45;100326.13;5016127;28;20026;-69
2021/09/30 14:20:08;;;;;;;;;;;;;;;14.35;91.21;100315.13;5015123;28;19917;-71
2021/09/30 14:22:34;;;;;;;;;;;;;;;14.35;91.35;100315.13;5017753;28;20313;-68
2021/09/30 14:25:00;;;;;;;;;;;;;;;14.36;90.95;100314.88;5029662;28;19963;-70
2021/09/30 14:27:28;;;;;;;;;;;;;;;14.45;90.82;100308.22;5012743;28;19939;-69
2021/09/30 14:29:53;;;;;;;;;;;;;;;14.56;90.43;100305.94;5033442;28;19912;-69
2021/09/30 14:32:19;;;;;;;;;;;;;;;14.61;90.52;100306.13;5005998;28;19912;-68
2021/09/30 14:34:44;;;;;;;;;;;;;;;14.58;90.50;100296.56;5013633;28;20277;-66
2021/09/30 14:37:10;;;;;;;;;;;;;;;14.58;90.93;100290.28;5014780;28;19924;-69
2021/09/30 14:39:36;;;;;;;;;;;;;;;14.72;90.61;100279.22;5019686;28;20326;-69
2021/09/30 14:42:02;;;;;;;;;;;;;;;14.77;90.70;100286.69;5040769;28;19917;-71
2021/09/30 14:44:28;;;;;;;;;;;;;;;14.72;91.16;100283.81;5023681;28;20246;-67
2021/09/30 14:46:54;;;;;;;;;;;;;;;14.57;91.74;100294.06;5015903;28;20350;-67
2021/09/30 14:49:20;;;;;;;;;;;;;;;14.44;92.50;100301.13;5021643;28;19922;-68
2021/09/30 14:51:45;;;;;;;;;;;;;;;14.35;93.02;100302.41;5018481;28;20023;-69
2021/09/30 14:54:11;;;;;;;;;;;;;;;14.21;94.17;100300.75;5020521;28;19913;-67
2021/09/30 14:56:36;;;;;;;;;;;;;;;14.06;95.38;100287.50;5017233;28;20331;-71
2021/09/30 14:59:02;;;;;;;;;;;;;;;14.10;96.16;100296.84;5019241;28;19917;-67
2021/09/30 15:01:30;;;;;;;;;;;;;;;14.08;95.96;100290.81;5024045;28;19913;-68
2021/09/30 15:03:56;;;;;;;;;;;;;;;13.86;96.67;100292.91;5024650;28;19912;-70
2021/09/30 15:06:30;;;;;;;;;;;;;;;13.78;97.41;100296.66;5026401;28;19913;-70
2021/09/30 15:08:55;;;;;;;;;;;;;;;13.68;98.05;100298.09;5021379;28;19951;-68
2021/09/30 15:11:21;;;;;;;;;;;;;;;13.71;98.18;100298.53;5014476;28;19916;-68